createdAt,value
2022-11-10T00:03:47.595Z,999.97
2022-11-10T00:08:47.468Z,1000.00
2022-11-10T00:13:47.412Z,1000.10
2022-11-10T00:18:47.338Z,1000.07
2022-11-10T00:23:47.287Z,1000.20
2022-11-10T00:28:47.207Z,1000.39
2022-11-10T00:33:47.150Z,1000.47
2022-11-10T00:38:47.076Z,1000.58
2022-11-10T00:43:47.023Z,1000.56
2022-11-10T00:48:46.949Z,1000.61
2022-11-10T00:53:46.879Z,1000.56
2022-11-10T00:58:46.825Z,1000.52
2022-11-10T01:03:46.750Z,1000.65
2022-11-10T01:08:46.693Z,1000.66
2022-11-10T01:13:46.622Z,1000.73
2022-11-10T01:18:46.564Z,1000.76
2022-11-10T01:23:46.489Z,1000.86
2022-11-10T01:28:46.433Z,1000.97
2022-11-10T01:33:46.358Z,1000.86
2022-11-10T01:38:46.299Z,1000.93
2022-11-10T01:43:46.227Z,1000.94
2022-11-10T01:48:46.169Z,1000.95
2022-11-10T01:53:46.097Z,1001.03
2022-11-10T01:58:46.038Z,1001.05
2022-11-10T02:03:45.964Z,1001.14
2022-11-10T02:08:45.907Z,1001.17
2022-11-10T02:13:45.836Z,1001.29
2022-11-10T02:18:45.777Z,1001.43
2022-11-10T02:23:45.701Z,1001.52
2022-11-10T02:28:45.645Z,1001.54
2022-11-10T02:33:45.572Z,1001.65
2022-11-10T02:38:45.514Z,1001.68
2022-11-10T02:43:45.439Z,1001.70
2022-11-10T02:48:45.390Z,1001.79
2022-11-10T02:53:45.308Z,1001.84
2022-11-10T02:58:45.250Z,1001.81
2022-11-10T03:03:45.175Z,1001.76
2022-11-10T03:08:45.123Z,1001.88
2022-11-10T03:14:01.077Z,1001.97
2022-11-10T03:18:46.010Z,1002.03
2022-11-10T03:23:44.910Z,1002.20
2022-11-10T03:28:44.853Z,1002.30
2022-11-10T03:33:44.780Z,1002.36
2022-11-10T03:38:44.721Z,1002.41
2022-11-10T03:43:44.647Z,1002.39
2022-11-10T03:48:50.176Z,1002.58
2022-11-10T03:53:44.512Z,1002.62
2022-11-10T03:58:44.455Z,1002.73
2022-11-10T04:03:48.808Z,1002.73
2022-11-10T04:08:44.327Z,1002.80
2022-11-10T04:13:44.251Z,1002.87
2022-11-10T04:18:44.192Z,1002.93
2022-11-10T04:23:44.119Z,1003.00
2022-11-10T04:28:44.059Z,1002.99
2022-11-10T04:33:43.987Z,1003.13
2022-11-10T04:38:43.927Z,1003.21
2022-11-10T04:43:43.856Z,1003.20
2022-11-10T04:48:43.794Z,1003.19
2022-11-10T04:53:43.731Z,1003.22
2022-11-10T04:58:43.670Z,1003.22
2022-11-10T05:03:43.603Z,1003.31
2022-11-10T05:08:43.538Z,1003.48
2022-11-10T05:13:43.474Z,1003.52
2022-11-10T05:18:43.411Z,1003.59
2022-11-10T05:23:43.342Z,1003.58
2022-11-10T05:28:43.283Z,1003.60
2022-11-10T05:33:43.212Z,1003.62
2022-11-10T05:38:43.818Z,1003.70
2022-11-10T05:43:43.082Z,1003.83
2022-11-10T05:48:43.009Z,1003.95
2022-11-10T05:53:42.953Z,1004.03
2022-11-10T05:58:42.879Z,1004.20
2022-11-10T06:03:42.936Z,1004.31
2022-11-10T06:08:42.749Z,1004.48
2022-11-10T06:13:42.693Z,1004.63
2022-11-10T06:18:42.619Z,1004.69
2022-11-10T06:23:42.563Z,1004.81
2022-11-10T06:28:42.493Z,1004.82
2022-11-10T06:33:42.433Z,1004.99
2022-11-10T06:38:42.359Z,1005.02
2022-11-10T06:43:42.304Z,1005.22
2022-11-10T06:48:42.230Z,1005.27
2022-11-10T06:53:42.172Z,1005.45
2022-11-10T06:58:42.110Z,1005.54
2022-11-10T07:04:05.222Z,1005.55
2022-11-10T07:08:43.005Z,1005.61
2022-11-10T07:13:41.912Z,1005.68
2022-11-10T07:18:41.850Z,1005.79
2022-11-10T07:23:41.781Z,1005.79
2022-11-10T07:28:41.717Z,1005.89
2022-11-10T07:33:41.648Z,1005.93
2022-11-10T07:38:41.575Z,1006.14
2022-11-10T07:43:41.517Z,1006.23
2022-11-10T07:48:41.447Z,1006.30
2022-11-10T07:53:41.391Z,1006.26
2022-11-10T07:58:41.314Z,1006.39
2022-11-10T08:03:41.260Z,1006.35
2022-11-10T08:08:41.185Z,1006.36
2022-11-10T08:13:41.127Z,1006.46
2022-11-10T08:18:41.063Z,1006.54
2022-11-10T08:23:40.996Z,1006.60
2022-11-10T08:28:40.931Z,1006.89
2022-11-10T08:33:40.864Z,1006.93
2022-11-10T08:38:40.800Z,1006.89
2022-11-10T08:43:40.731Z,1006.88
2022-11-10T08:48:40.668Z,1006.91
2022-11-10T08:53:40.611Z,1007.05
2022-11-10T08:58:48.793Z,1007.09
2022-11-10T09:03:41.508Z,1007.12
2022-11-10T09:08:40.399Z,1006.98
2022-11-10T09:13:40.351Z,1007.13
2022-11-10T09:18:40.268Z,1007.22
2022-11-10T09:23:40.223Z,1007.24
2022-11-10T09:28:40.139Z,1007.31
2022-11-10T09:33:40.082Z,1007.45
2022-11-10T09:38:40.010Z,1007.53
2022-11-10T09:43:39.948Z,1007.56
2022-11-10T09:48:39.878Z,1007.64
2022-11-10T09:53:39.824Z,1007.61
2022-11-10T09:58:39.754Z,1007.67
2022-11-10T10:03:39.695Z,1007.63
2022-11-10T10:08:39.625Z,1007.61
2022-11-10T10:13:39.626Z,1007.58
2022-11-10T10:18:39.498Z,1007.52
2022-11-10T10:24:08.050Z,1007.48
2022-11-10T10:28:40.402Z,1007.58
2022-11-10T10:33:39.330Z,1007.62
2022-11-10T10:38:39.251Z,1007.66
2022-11-10T10:43:39.203Z,1007.75
2022-11-10T10:48:39.123Z,1007.73
2022-11-10T10:53:39.089Z,1007.62
2022-11-10T10:58:38.997Z,1007.65
2022-11-10T11:03:38.945Z,1007.70
2022-11-10T11:08:38.867Z,1007.66
2022-11-10T11:13:38.810Z,1007.69
2022-11-10T11:18:38.740Z,1007.76
2022-11-10T11:23:38.680Z,1007.78
2022-11-10T11:28:38.608Z,1007.76
2022-11-10T11:33:38.562Z,1007.76
2022-11-10T11:38:38.480Z,1007.76
2022-11-10T11:43:38.435Z,1007.84
2022-11-10T11:48:38.351Z,1007.81
2022-11-10T11:53:38.302Z,1007.91
2022-11-10T11:58:38.221Z,1007.87
2022-11-10T12:03:38.184Z,1007.97
2022-11-10T12:08:38.271Z,1008.13
2022-11-10T12:13:38.029Z,1008.22
2022-11-10T12:18:37.954Z,1008.22
2022-11-10T12:23:37.898Z,1008.27
2022-11-10T12:28:37.827Z,1008.29
2022-11-10T12:33:37.770Z,1008.24
2022-11-10T12:38:37.699Z,1008.26
2022-11-10T12:43:37.639Z,1008.24
2022-11-10T12:48:37.566Z,1008.25
2022-11-10T12:53:37.535Z,1008.34
2022-11-10T12:58:37.434Z,1008.37
2022-11-10T13:03:37.398Z,1008.34
2022-11-10T13:08:37.302Z,1008.40
2022-11-10T13:13:37.256Z,1008.51
2022-11-10T13:18:37.173Z,1008.59
2022-11-10T13:23:37.124Z,1008.72
2022-11-10T13:28:37.066Z,1008.65
2022-11-10T13:33:36.998Z,1008.66
2022-11-10T13:38:36.911Z,1008.67
2022-11-10T13:43:36.854Z,1008.65
2022-11-10T13:48:36.783Z,1008.65
2022-11-10T13:53:36.732Z,1008.74
2022-11-10T13:58:36.663Z,1008.92
2022-11-10T14:03:36.748Z,1008.95
2022-11-10T14:08:36.519Z,1009.00
2022-11-10T14:13:36.461Z,1009.07
2022-11-10T14:18:36.383Z,1009.10
2022-11-10T14:23:36.326Z,1009.24
2022-11-10T14:28:36.309Z,1009.20
2022-11-10T14:33:36.242Z,1009.24
2022-11-10T14:38:36.161Z,1009.32
2022-11-10T14:43:36.127Z,1009.47
2022-11-10T14:48:36.055Z,1009.50
2022-11-10T14:53:35.997Z,1009.58
2022-11-10T14:58:35.917Z,1009.64
2022-11-10T15:03:35.845Z,1009.71
2022-11-10T15:08:35.738Z,1009.72
2022-11-10T15:13:35.678Z,1009.81
2022-11-10T15:18:35.606Z,1009.88
2022-11-10T15:23:35.540Z,1009.84
2022-11-10T15:28:35.479Z,1009.87
2022-11-10T15:33:35.412Z,1009.88
2022-11-10T15:38:35.344Z,1009.97
2022-11-10T15:43:35.282Z,1010.05
2022-11-10T15:48:35.210Z,1010.05
2022-11-10T15:53:35.153Z,1010.19
2022-11-10T15:58:35.079Z,1010.27
2022-11-10T16:03:35.021Z,1010.29
2022-11-10T16:08:34.946Z,1010.34
2022-11-10T16:13:34.889Z,1010.42
2022-11-10T16:18:34.826Z,1010.45
2022-11-10T16:23:34.755Z,1010.46
2022-11-10T16:28:34.693Z,1010.42
2022-11-10T16:33:34.624Z,1010.47
2022-11-10T16:38:34.560Z,1010.47
2022-11-10T16:43:34.492Z,1010.59
2022-11-10T16:48:34.429Z,1010.68
2022-11-10T16:53:34.361Z,1010.74
2022-11-10T16:58:34.312Z,1010.67
2022-11-10T17:03:34.230Z,1010.75
2022-11-10T17:08:34.166Z,1010.82
2022-11-10T17:13:34.100Z,1010.81
2022-11-10T17:18:34.041Z,1010.92
2022-11-10T17:23:34.015Z,1011.06
2022-11-10T17:28:33.908Z,1011.13
2022-11-10T17:33:33.841Z,1011.04
2022-11-10T17:38:33.766Z,1010.94
2022-11-10T17:43:33.706Z,1010.94
2022-11-10T17:48:33.634Z,1010.98
2022-11-10T17:53:33.577Z,1011.03
2022-11-10T17:58:33.503Z,1011.07
2022-11-10T18:03:33.446Z,1011.19
2022-11-10T18:08:33.372Z,1011.33
2022-11-10T18:13:33.316Z,1011.42
2022-11-10T18:18:33.247Z,1011.38
2022-11-10T18:23:33.187Z,1011.34
2022-11-10T18:28:33.115Z,1011.39
2022-11-10T18:33:33.051Z,1011.45
2022-11-10T18:38:33.019Z,1011.41
2022-11-10T18:43:32.916Z,1011.34
2022-11-10T18:48:37.142Z,1011.29
2022-11-10T18:53:37.899Z,1011.30
2022-11-10T18:58:32.712Z,1011.35
2022-11-10T19:03:32.654Z,1011.25
2022-11-10T19:08:32.589Z,1011.29
2022-11-10T19:13:32.525Z,1011.45
2022-11-10T19:18:32.454Z,1011.46
2022-11-10T19:23:32.395Z,1011.51
2022-11-10T19:28:32.321Z,1011.52
2022-11-10T19:33:32.265Z,1011.63
2022-11-10T19:38:32.193Z,1011.71
2022-11-10T19:43:32.136Z,1011.70
2022-11-10T19:48:32.063Z,1011.95
2022-11-10T19:53:32.004Z,1011.97
2022-11-10T19:58:31.933Z,1011.91
2022-11-10T20:03:31.877Z,1011.95
2022-11-10T20:08:31.803Z,1011.91
2022-11-10T20:13:31.757Z,1011.99
2022-11-10T20:18:31.673Z,1012.01
2022-11-10T20:23:31.629Z,1011.96
2022-11-10T20:28:31.543Z,1011.98
2022-11-10T20:33:31.497Z,1012.03
2022-11-10T20:38:31.412Z,1012.13
2022-11-10T20:43:31.366Z,1012.23
2022-11-10T20:48:31.281Z,1012.06
2022-11-10T20:53:31.225Z,1012.03
2022-11-10T20:58:31.151Z,1012.14
2022-11-10T21:03:31.092Z,1012.18
2022-11-10T21:08:31.021Z,1012.14
2022-11-10T21:13:30.963Z,1012.14
2022-11-10T21:18:30.892Z,1012.08
2022-11-10T21:23:30.834Z,1012.10
2022-11-10T21:28:30.759Z,1012.20
2022-11-10T21:33:30.713Z,1012.19
2022-11-10T21:38:30.670Z,1012.27
2022-11-10T21:43:30.582Z,1012.31
2022-11-10T21:48:30.499Z,1012.37
2022-11-10T21:53:30.450Z,1012.40
2022-11-10T21:58:30.367Z,1012.46
2022-11-10T22:03:30.320Z,1012.43
2022-11-10T22:08:30.238Z,1012.37
2022-11-10T22:13:30.183Z,1012.44
2022-11-10T22:18:30.113Z,1012.41
2022-11-10T22:23:30.050Z,1012.33
2022-11-10T22:28:29.982Z,1012.29
2022-11-10T22:33:29.920Z,1012.30
2022-11-10T22:38:29.851Z,1012.30
2022-11-10T22:43:29.796Z,1012.42
2022-11-10T22:48:29.723Z,1012.33
2022-11-10T22:53:29.648Z,1012.38
2022-11-10T22:58:29.590Z,1012.40
2022-11-10T23:03:29.519Z,1012.38
2022-11-10T23:08:29.461Z,1012.34
2022-11-10T23:13:29.388Z,1012.42
2022-11-10T23:18:29.328Z,1012.42
2022-11-10T23:23:29.255Z,1012.36
2022-11-10T23:28:29.195Z,1012.45
2022-11-10T23:33:32.664Z,1012.55
2022-11-10T23:38:29.063Z,1012.62
2022-11-10T23:43:29.000Z,1012.68
2022-11-10T23:48:28.933Z,1012.82
2022-11-10T23:53:28.877Z,1012.88
2022-11-10T23:58:28.800Z,1012.86
